Terminal Aerodrome Forecast
Issued by NWS Binghamton, NY

Home | Current Version | Previous Version | Text Only | Print | Product List | Glossary On
Versions: 1 2 3 4 5 6 7 8 9 10 11 12 13 14
404
FTUS41 KBGM 161741
TAFSYR
TAF
KSYR 161741Z 1618/1718 VRB03KT 5SM -SN OVC025
      TEMPO 1620/1622 2SM -SN
     FM162200 VRB03KT 2SM -SN OVC012
     FM170700 26007KT 5SM -SN OVC012
     FM171500 29010KT 5SM -SHSN OVC025=

USA.gov is the U.S. government's official web portal to all federal, state and local government web resources and services.